Haiyang, China
Current Conditions -  °F | °C
As of 5:00 PM on Thursday 18 Dec 2014 (Local Time) from ZSQD Reporting Station
Clear Clear  
Wind Chill: 34°   Ceiling: Unl
Heat Index: 41°   Visibility: 6mi
Dew Point: 16°   Wind: 11mph
Humidity: 36%   Direction: 180°S
Pressure: 30.42"   Gusts: NA
Location:  36.77°N, 121.17°E
Report Text: ZSQD 180900Z 18005MPS CAVOK 05/M09 Q1030 NOSIG
Loading
Personal Weather Stations






























Interactive Weather Map New forecast layout! Learn more

10-Day Weather Forecast

Advertisements
Track Severe Weather on mobile